Time;durP1;ratioP1;P1;durP2;ratioP2;P2;SDS_P1;SDS_P2;PMS_P1;PMS_P2;Temp;Humidity;BMP_temperature;BMP_pressure;BME280_temperature;BME280_humidity;BME280_pressure;Samples;Min_cycle;Max_cycle;Signal;HPM_P1;HPM_P2
2021/07/20 00:01:11;;;;;;;;;;;;;;;23.83;71.61;100131.56;5033301;28;1329;-38
2021/07/20 00:03:38;;;;;;;;;;;;;;;23.85;71.88;100134.06;5033834;28;1006;-38
2021/07/20 00:06:04;;;;;;;;;;;;;;;23.81;72.37;100139.88;5033666;28;1069;-37
2021/07/20 00:08:31;;;;;;;;;;;;;;;23.80;71.99;100121.97;5027765;28;1902;-38
2021/07/20 00:11:01;;;;;;;;;;;;;;;23.97;71.76;100124.50;5014081;28;998;-38
2021/07/20 00:13:27;;;;;;;;;;;;;;;23.93;71.66;100121.31;5013500;28;1084;-38
2021/07/20 00:15:55;;;;;;;;;;;;;;;23.82;71.90;100113.69;5013790;28;1085;-38
2021/07/20 00:18:24;;;;;;;;;;;;;;;23.77;71.74;100114.22;5013796;28;1040;-38
2021/07/20 00:20:51;;;;;;;;;;;;;;;23.79;72.09;100109.47;5013694;28;1902;-38
2021/07/20 00:23:19;;;;;;;;;;;;;;;23.75;71.75;100110.00;5019033;28;1863;-38
2021/07/20 00:25:47;;;;;;;;;;;;;;;23.74;72.02;100111.88;5013441;28;1119;-38
2021/07/20 00:28:15;;;;;;;;;;;;;;;23.69;71.93;100108.03;5013367;28;1238;-38
2021/07/20 00:30:41;;;;;;;;;;;;;;;23.78;72.47;100115.09;5014153;28;1193;-38
2021/07/20 00:33:08;;;;;;;;;;;;;;;23.72;72.13;100111.22;5033496;28;1919;-38
2021/07/20 00:35:34;;;;;;;;;;;;;;;23.72;71.95;100108.50;5036994;28;1182;-37
2021/07/20 00:38:01;;;;;;;;;;;;;;;23.77;72.14;100103.41;5036927;28;1055;-38
2021/07/20 00:40:28;;;;;;;;;;;;;;;23.93;71.64;100102.41;5036848;28;1902;-38
2021/07/20 00:42:54;;;;;;;;;;;;;;;24.03;71.25;100094.06;5037171;28;1064;-38
2021/07/20 00:45:22;;;;;;;;;;;;;;;24.08;71.15;100099.75;5026610;28;1745;-38
2021/07/20 00:47:49;;;;;;;;;;;;;;;24.09;71.40;100104.13;5017299;28;1081;-38
2021/07/20 00:50:17;;;;;;;;;;;;;;;24.02;71.16;100093.22;5017211;28;1039;-38
2021/07/20 00:52:43;;;;;;;;;;;;;;;24.11;71.57;100107.47;5017116;28;1020;-38
2021/07/20 00:55:10;;;;;;;;;;;;;;;23.96;71.53;100098.53;5016798;28;1143;-38
2021/07/20 00:57:38;;;;;;;;;;;;;;;23.88;71.47;100090.53;5017066;28;1059;-38
2021/07/20 01:00:05;;;;;;;;;;;;;;;23.78;72.17;100099.72;5031023;28;1902;-38
2021/07/20 01:02:33;;;;;;;;;;;;;;;23.77;71.67;100095.31;5036523;28;1315;-38
2021/07/20 01:05:00;;;;;;;;;;;;;;;23.84;71.65;100083.81;5030089;28;1906;-38
2021/07/20 01:07:27;;;;;;;;;;;;;;;23.96;71.04;100079.63;5016857;28;1045;-38
2021/07/20 01:09:54;;;;;;;;;;;;;;;24.07;71.26;100073.75;5016952;28;1933;-38
2021/07/20 01:12:21;;;;;;;;;;;;;;;24.13;70.95;100083.84;5017068;28;1105;-38
2021/07/20 01:14:48;;;;;;;;;;;;;;;24.08;70.86;100075.44;5035638;28;1889;-38
2021/07/20 01:17:14;;;;;;;;;;;;;;;23.96;70.54;100087.72;5036700;28;1155;-38
2021/07/20 01:19:47;;;;;;;;;;;;;;;23.84;71.30;100073.00;5036383;28;1977;-38
2021/07/20 01:22:17;;;;;;;;;;;;;;;23.91;71.01;100073.94;5036442;28;1046;-38
2021/07/20 01:24:45;;;;;;;;;;;;;;;24.04;70.54;100090.34;5020811;28;1885;-38
2021/07/20 01:27:12;;;;;;;;;;;;;;;24.13;70.73;100078.44;5016241;28;1139;-38
2021/07/20 01:29:40;;;;;;;;;;;;;;;23.96;70.29;100083.16;5016212;28;1079;-38
2021/07/20 01:32:07;;;;;;;;;;;;;;;23.85;70.87;100091.72;5023425;28;1963;-38
2021/07/20 01:34:33;;;;;;;;;;;;;;;23.94;70.66;100090.63;5035937;28;1181;-38
2021/07/20 01:37:01;;;;;;;;;;;;;;;24.01;70.80;100085.31;5036490;28;1086;-37
2021/07/20 01:39:29;;;;;;;;;;;;;;;23.88;71.04;100101.31;5036492;28;1902;-37
2021/07/20 01:41:57;;;;;;;;;;;;;;;23.78;71.52;100102.41;5035406;28;1079;-38
2021/07/20 01:44:24;;;;;;;;;;;;;;;23.80;71.14;100105.75;5036070;28;1092;-37
2021/07/20 01:46:52;;;;;;;;;;;;;;;23.74;71.24;100105.63;5023667;28;1984;-38
2021/07/20 01:49:18;;;;;;;;;;;;;;;23.66;71.75;100111.94;5015841;28;1096;-38
2021/07/20 01:51:45;;;;;;;;;;;;;;;23.63;71.91;100115.84;5016177;28;1055;-38
2021/07/20 01:54:12;;;;;;;;;;;;;;;23.67;72.05;100123.56;5015993;28;1167;-38
2021/07/20 01:56:39;;;;;;;;;;;;;;;23.79;71.52;100122.97;5015738;28;1107;-38
2021/07/20 01:59:09;;;;;;;;;;;;;;;23.82;71.31;100114.53;5015563;28;1979;-38
2021/07/20 02:01:40;;;;;;;;;;;;;;;23.97;70.79;100128.06;5139301;23;3600;-41
2021/07/20 02:09:35;;;;;;;;;;;;;;;23.85;70.80;100131.38;5055232;28;694;-40
2021/07/20 02:12:10;;;;;;;;;;;;;;;23.93;71.09;100124.03;5055437;28;995;-40
2021/07/20 02:14:41;;;;;;;;;;;;;;;23.99;71.26;100122.47;5055335;28;1082;-40
2021/07/20 02:17:08;;;;;;;;;;;;;;;23.91;71.55;100128.78;5054644;28;1852;-40
2021/07/20 02:19:36;;;;;;;;;;;;;;;23.75;71.14;100135.13;5053825;28;1898;-40
2021/07/20 02:22:04;;;;;;;;;;;;;;;23.71;71.29;100143.78;5054703;28;1010;-40
2021/07/20 02:24:32;;;;;;;;;;;;;;;23.65;71.60;100141.81;5054898;28;1146;-40
2021/07/20 02:27:00;;;;;;;;;;;;;;;23.59;71.30;100152.31;5054851;28;1107;-40
2021/07/20 02:29:26;;;;;;;;;;;;;;;23.61;71.23;100154.81;5054826;28;1138;-40
2021/07/20 02:31:56;;;;;;;;;;;;;;;23.54;71.76;100159.28;5055149;28;2036;-40
2021/07/20 02:34:23;;;;;;;;;;;;;;;23.59;71.25;100156.88;5054990;28;1043;-40
2021/07/20 02:36:50;;;;;;;;;;;;;;;23.53;71.30;100146.78;5054858;28;1079;-40
2021/07/20 02:39:18;;;;;;;;;;;;;;;23.47;71.49;100142.13;5055076;28;1902;-40
2021/07/20 02:41:45;;;;;;;;;;;;;;;23.52;71.26;100151.38;5054583;28;1162;-40
2021/07/20 02:44:12;;;;;;;;;;;;;;;23.49;71.31;100154.41;5054453;28;1079;-40
2021/07/20 02:46:39;;;;;;;;;;;;;;;23.51;71.51;100140.75;5053822;28;2006;-40
2021/07/20 02:49:07;;;;;;;;;;;;;;;23.59;71.08;100154.16;5054696;28;1019;-40
2021/07/20 02:51:34;;;;;;;;;;;;;;;23.58;71.13;100160.59;5054373;28;1103;-40
2021/07/20 02:54:01;;;;;;;;;;;;;;;23.51;71.82;100156.94;5053362;28;1077;-40
2021/07/20 02:56:29;;;;;;;;;;;;;;;23.50;71.48;100158.81;5054826;28;1093;-40
2021/07/20 02:58:57;;;;;;;;;;;;;;;23.52;71.62;100164.84;5053899;28;1841;-41
2021/07/20 03:01:25;;;;;;;;;;;;;;;23.51;72.11;100159.63;5054346;28;1973;-40
2021/07/20 03:03:51;;;;;;;;;;;;;;;23.54;71.82;100162.81;5054025;28;1347;-40
2021/07/20 03:06:22;;;;;;;;;;;;;;;23.57;72.36;100161.59;5054355;28;1030;-40
2021/07/20 03:08:49;;;;;;;;;;;;;;;23.52;71.85;100161.31;5054060;28;1067;-40
2021/07/20 03:11:16;;;;;;;;;;;;;;;23.47;72.16;100161.84;5054363;28;964;-40
2021/07/20 03:13:44;;;;;;;;;;;;;;;23.51;71.96;100162.34;5053587;28;1794;-40
2021/07/20 03:16:11;;;;;;;;;;;;;;;23.48;71.82;100160.00;5054193;28;1002;-40
2021/07/20 03:18:38;;;;;;;;;;;;;;;23.46;72.26;100162.03;5053846;28;1138;-40
2021/07/20 03:21:06;;;;;;;;;;;;;;;23.43;72.33;100161.34;5054353;28;1906;-40
2021/07/20 03:23:34;;;;;;;;;;;;;;;23.42;72.20;100164.25;5054094;28;1184;-40
2021/07/20 03:26:01;;;;;;;;;;;;;;;23.47;71.96;100174.50;5053650;28;1768;-40
2021/07/20 03:28:29;;;;;;;;;;;;;;;23.46;71.96;100162.03;5053664;28;1134;-40
2021/07/20 03:30:56;;;;;;;;;;;;;;;23.41;72.02;100160.69;5053979;28;1073;-40
2021/07/20 03:33:24;;;;;;;;;;;;;;;23.53;72.01;100168.38;5053979;28;1179;-40
2021/07/20 03:35:51;;;;;;;;;;;;;;;23.53;72.35;100163.00;5053594;28;1131;-40
2021/07/20 03:38:18;;;;;;;;;;;;;;;23.49;71.74;100167.91;5053580;28;1161;-40
2021/07/20 03:40:47;;;;;;;;;;;;;;;23.41;71.89;100149.91;5053162;28;1975;-41
2021/07/20 03:43:13;;;;;;;;;;;;;;;23.41;72.00;100165.25;5053749;28;1085;-40
2021/07/20 03:45:40;;;;;;;;;;;;;;;23.47;72.10;100169.94;5053780;28;1052;-40
2021/07/20 03:48:07;;;;;;;;;;;;;;;23.41;72.46;100165.25;5053506;28;999;-41
2021/07/20 03:50:34;;;;;;;;;;;;;;;23.38;72.33;100166.47;5053641;28;1162;-40
2021/07/20 03:53:01;;;;;;;;;;;;;;;23.40;72.04;100164.44;5053351;28;1112;-40
2021/07/20 03:55:27;;;;;;;;;;;;;;;23.41;72.28;100159.88;5053440;28;1904;-40
2021/07/20 03:57:56;;;;;;;;;;;;;;;23.37;72.27;100170.16;5053869;28;1034;-40
2021/07/20 04:00:22;;;;;;;;;;;;;;;23.48;72.25;100168.09;5053503;28;1976;-40
2021/07/20 04:02:56;;;;;;;;;;;;;;;23.46;72.08;100175.50;5046654;28;2694;-40
2021/07/20 04:05:23;;;;;;;;;;;;;;;23.43;71.98;100172.16;5046828;28;1855;-40
2021/07/20 04:07:50;;;;;;;;;;;;;;;23.48;71.89;100173.50;5051176;28;1574;-40
2021/07/20 04:10:17;;;;;;;;;;;;;;;23.50;71.60;100174.16;5051052;28;2114;-40
2021/07/20 04:12:44;;;;;;;;;;;;;;;23.56;71.39;100176.97;5054024;28;1667;-41
2021/07/20 04:15:15;;;;;;;;;;;;;;;23.52;71.21;100172.13;5054711;28;1763;-41
2021/07/20 04:17:42;;;;;;;;;;;;;;;23.64;71.56;100167.97;5052665;28;1755;-41
2021/07/20 04:20:10;;;;;;;;;;;;;;;23.73;70.85;100164.16;5050777;28;1895;-41
2021/07/20 04:22:37;;;;;;;;;;;;;;;23.70;71.25;100163.72;5056489;28;1649;-40
2021/07/20 04:25:04;;;;;;;;;;;;;;;23.63;71.40;100171.69;5053093;28;1605;-40
2021/07/20 04:27:32;;;;;;;;;;;;;;;23.63;71.36;100179.78;5054067;28;1744;-41
2021/07/20 04:29:59;;;;;;;;;;;;;;;23.54;71.38;100159.28;5052163;28;1186;-40
2021/07/20 04:32:27;;;;;;;;;;;;;;;23.61;71.30;100169.16;5052676;28;1783;-41
2021/07/20 04:34:54;;;;;;;;;;;;;;;23.60;71.53;100172.06;5055297;28;1297;-40
2021/07/20 04:37:21;;;;;;;;;;;;;;;23.59;71.45;100184.69;5055835;28;1935;-40
2021/07/20 04:39:48;;;;;;;;;;;;;;;23.62;71.61;100183.50;5052856;28;1676;-41
2021/07/20 04:42:15;;;;;;;;;;;;;;;23.68;71.45;100174.69;5050911;28;1902;-40
2021/07/20 04:44:41;;;;;;;;;;;;;;;23.67;71.43;100175.69;5055036;28;1746;-40
2021/07/20 04:47:08;;;;;;;;;;;;;;;23.69;71.51;100181.75;5049208;28;1698;-41
2021/07/20 04:49:38;;;;;;;;;;;;;;;23.68;71.37;100169.28;5052895;28;1820;-41
2021/07/20 04:52:05;;;;;;;;;;;;;;;23.66;71.05;100182.13;5053735;28;1618;-41
2021/07/20 04:54:32;;;;;;;;;;;;;;;23.60;71.15;100172.88;5052465;28;1051;-41
2021/07/20 04:56:59;;;;;;;;;;;;;;;23.65;70.91;100182.31;5051681;28;1828;-40
2021/07/20 04:59:26;;;;;;;;;;;;;;;23.66;70.96;100179.44;5051738;28;1554;-40
2021/07/20 05:01:53;;;;;;;;;;;;;;;23.63;70.39;100180.63;5054735;28;2036;-40
2021/07/20 05:04:19;;;;;;;;;;;;;;;23.73;70.70;100191.16;5052219;28;1770;-41
2021/07/20 05:06:49;;;;;;;;;;;;;;;23.82;70.82;100192.00;5052657;28;1247;-40
2021/07/20 05:09:15;;;;;;;;;;;;;;;23.82;70.75;100184.72;5053777;28;1677;-40
2021/07/20 05:11:42;;;;;;;;;;;;;;;23.81;70.49;100185.75;5052090;28;2053;-40
2021/07/20 05:14:08;;;;;;;;;;;;;;;23.89;70.17;100194.78;5053933;28;1673;-41
2021/07/20 05:16:35;;;;;;;;;;;;;;;23.92;69.90;100194.44;5054193;28;1731;-41
2021/07/20 05:19:02;;;;;;;;;;;;;;;23.87;70.16;100194.13;5051591;28;1086;-41
2021/07/20 05:21:30;;;;;;;;;;;;;;;23.85;70.76;100182.69;5046427;28;1968;-40
2021/07/20 05:23:58;;;;;;;;;;;;;;;23.92;70.05;100192.56;5051442;28;1738;-40
2021/07/20 05:26:25;;;;;;;;;;;;;;;23.97;70.16;100189.31;5049687;28;2060;-41
2021/07/20 05:28:52;;;;;;;;;;;;;;;23.98;69.97;100189.16;5048249;28;1943;-41
2021/07/20 05:31:18;;;;;;;;;;;;;;;23.78;68.84;100201.47;5051951;28;1475;-40
2021/07/20 05:33:45;;;;;;;;;;;;;;;23.13;67.90;100195.44;5048481;28;1970;-40
2021/07/20 05:36:11;;;;;;;;;;;;;;;22.67;67.00;100199.84;5048936;28;1837;-40
2021/07/20 05:38:39;;;;;;;;;;;;;;;22.40;66.45;100212.69;5049392;28;1857;-40
2021/07/20 05:41:07;;;;;;;;;;;;;;;22.16;66.53;100213.53;5045781;28;1906;-41
2021/07/20 05:43:34;;;;;;;;;;;;;;;22.08;65.36;100206.28;5045911;28;1667;-40
2021/07/20 05:46:01;;;;;;;;;;;;;;;21.93;65.50;100208.84;5052253;28;1731;-41
2021/07/20 05:48:28;;;;;;;;;;;;;;;21.87;65.00;100203.28;5045793;28;1929;-40
2021/07/20 05:50:58;;;;;;;;;;;;;;;22.02;64.59;100217.75;5050078;28;1751;-40
2021/07/20 05:53:28;;;;;;;;;;;;;;;22.07;64.30;100210.00;5047381;28;1716;-41
2021/07/20 05:55:56;;;;;;;;;;;;;;;22.11;64.50;100205.97;5046408;28;1760;-40
2021/07/20 05:58:24;;;;;;;;;;;;;;;22.16;64.35;100217.09;5049006;28;2032;-40
2021/07/20 06:00:52;;;;;;;;;;;;;;;22.22;64.52;100216.41;5049833;28;1902;-40
2021/07/20 06:03:20;;;;;;;;;;;;;;;22.27;64.45;100215.09;5047415;28;1740;-41
2021/07/20 06:05:50;;;;;;;;;;;;;;;22.30;64.06;100209.34;5045886;28;1534;-40
2021/07/20 06:08:17;;;;;;;;;;;;;;;22.35;64.10;100212.38;5045201;28;1630;-40
2021/07/20 06:10:46;;;;;;;;;;;;;;;22.26;64.13;100218.78;5052190;28;1323;-40
2021/07/20 06:13:12;;;;;;;;;;;;;;;22.33;64.17;100206.31;5049594;28;1755;-41
2021/07/20 06:15:41;;;;;;;;;;;;;;;22.26;64.36;100210.69;5049591;28;1785;-40
2021/07/20 06:18:08;;;;;;;;;;;;;;;22.25;64.28;100217.94;5047370;28;1901;-41
2021/07/20 06:20:36;;;;;;;;;;;;;;;22.26;64.42;100213.38;5048434;28;1977;-40
2021/07/20 06:23:03;;;;;;;;;;;;;;;22.30;63.87;100218.25;5044595;28;1798;-40
2021/07/20 06:25:30;;;;;;;;;;;;;;;22.26;63.69;100202.63;5050212;28;1742;-41
2021/07/20 06:27:58;;;;;;;;;;;;;;;22.26;63.94;100210.69;5046882;28;1759;-41
2021/07/20 06:30:24;;;;;;;;;;;;;;;22.28;63.78;100227.53;5048837;28;1282;-40
2021/07/20 06:32:53;;;;;;;;;;;;;;;22.32;63.53;100210.00;5049031;28;1730;-40
2021/07/20 06:35:20;;;;;;;;;;;;;;;22.30;63.43;100207.47;5047127;28;1898;-41
2021/07/20 06:37:47;;;;;;;;;;;;;;;22.30;63.78;100230.88;5048557;28;1791;-41
2021/07/20 06:40:14;;;;;;;;;;;;;;;22.32;63.60;100223.47;5048528;28;1775;-40
2021/07/20 06:42:41;;;;;;;;;;;;;;;22.26;63.72;100219.59;5048895;28;1902;-40
2021/07/20 06:45:08;;;;;;;;;;;;;;;22.28;63.65;100225.66;5047620;28;1331;-41
2021/07/20 06:47:39;;;;;;;;;;;;;;;22.30;63.32;100225.50;5049875;28;1675;-40
2021/07/20 06:50:08;;;;;;;;;;;;;;;22.28;63.66;100224.84;5048531;28;1518;-40
2021/07/20 06:52:34;;;;;;;;;;;;;;;22.36;63.55;100230.19;5047587;28;1764;-40
2021/07/20 06:55:01;;;;;;;;;;;;;;;22.29;63.56;100230.06;5048546;28;1686;-40
2021/07/20 06:57:29;;;;;;;;;;;;;;;22.26;63.73;100230.38;5047774;28;1774;-40
2021/07/20 06:59:56;;;;;;;;;;;;;;;22.18;63.54;100235.75;5047290;28;1229;-40
2021/07/20 07:02:23;;;;;;;;;;;;;;;22.14;64.07;100221.78;5049851;28;1976;-41
2021/07/20 07:04:53;;;;;;;;;;;;;;;22.16;64.17;100235.06;5048497;28;1711;-40
2021/07/20 07:07:21;;;;;;;;;;;;;;;22.10;63.83;100215.03;5047139;28;1761;-40
2021/07/20 07:09:49;;;;;;;;;;;;;;;22.15;63.79;100238.78;5047675;28;1760;-40
2021/07/20 07:12:16;;;;;;;;;;;;;;;22.12;63.58;100214.88;5047572;28;1791;-40
2021/07/20 07:14:43;;;;;;;;;;;;;;;22.05;63.89;100222.81;5047065;28;1325;-40
2021/07/20 07:17:09;;;;;;;;;;;;;;;22.16;63.83;100209.00;5046148;28;1554;-40
2021/07/20 07:19:36;;;;;;;;;;;;;;;22.07;63.60;100218.09;5048810;28;1738;-40
2021/07/20 07:22:03;;;;;;;;;;;;;;;22.08;63.21;100217.06;5045115;28;1973;-40
2021/07/20 07:24:31;;;;;;;;;;;;;;;22.09;63.66;100218.75;5047550;28;1142;-40
2021/07/20 07:26:58;;;;;;;;;;;;;;;22.03;62.96;100230.22;5046559;28;1729;-40
2021/07/20 07:29:26;;;;;;;;;;;;;;;22.02;62.99;100213.22;5046986;28;1973;-40
2021/07/20 07:31:52;;;;;;;;;;;;;;;22.23;62.39;100222.63;5049772;28;1736;-41
2021/07/20 07:34:19;;;;;;;;;;;;;;;22.35;62.26;100212.38;5046301;28;1642;-40
2021/07/20 07:36:46;;;;;;;;;;;;;;;22.42;61.94;100224.13;5047979;28;1077;-40
2021/07/20 07:39:14;;;;;;;;;;;;;;;22.44;61.73;100211.31;5046892;28;1978;-40
2021/07/20 07:41:45;;;;;;;;;;;;;;;22.40;62.44;100216.25;5043780;28;1902;-40
2021/07/20 07:44:12;;;;;;;;;;;;;;;22.23;62.93;100214.53;5046232;28;1955;-40
2021/07/20 07:46:40;;;;;;;;;;;;;;;22.14;63.70;100208.31;5049273;28;1805;-41
2021/07/20 07:49:08;;;;;;;;;;;;;;;22.11;63.75;100211.34;5045796;28;1166;-40
2021/07/20 07:51:35;;;;;;;;;;;;;;;22.10;63.90;100219.59;5047482;28;1876;-41
2021/07/20 07:54:02;;;;;;;;;;;;;;;22.11;63.68;100219.44;5047676;28;1624;-40
2021/07/20 07:56:30;;;;;;;;;;;;;;;22.15;63.97;100206.47;5045239;28;1811;-40
2021/07/20 07:58:59;;;;;;;;;;;;;;;22.18;64.30;100200.72;5048846;28;1796;-40
2021/07/20 08:01:26;;;;;;;;;;;;;;;22.39;63.62;100208.31;5050935;28;1919;-40
2021/07/20 08:03:54;;;;;;;;;;;;;;;22.51;63.01;100195.34;5044418;28;1674;-40
2021/07/20 08:06:21;;;;;;;;;;;;;;;22.62;62.54;100203.03;5048273;28;2045;-41
2021/07/20 08:08:49;;;;;;;;;;;;;;;22.61;62.67;100194.09;5046993;28;1941;-40
2021/07/20 08:11:16;;;;;;;;;;;;;;;22.53;63.95;100191.44;5043101;28;1690;-40
2021/07/20 08:13:43;;;;;;;;;;;;;;;22.55;63.80;100210.97;5047746;28;1773;-40
2021/07/20 08:16:12;;;;;;;;;;;;;;;22.51;63.97;100219.59;5048128;28;1259;-40
2021/07/20 08:18:40;;;;;;;;;;;;;;;22.41;64.47;100217.06;5044850;28;1801;-40
2021/07/20 08:21:07;;;;;;;;;;;;;;;22.30;64.94;100220.13;5043906;28;1914;-41
2021/07/20 08:23:34;;;;;;;;;;;;;;;22.36;64.16;100208.66;5046011;28;1851;-40
2021/07/20 08:26:04;;;;;;;;;;;;;;;22.34;65.20;100207.97;5044389;28;2376;-41
2021/07/20 08:28:33;;;;;;;;;;;;;;;22.36;65.34;100214.91;5046113;28;1896;-41
2021/07/20 08:31:02;;;;;;;;;;;;;;;22.37;65.44;100210.34;5047627;28;1364;-40
2021/07/20 08:33:32;;;;;;;;;;;;;;;22.43;65.45;100212.34;5049102;28;1874;-41
2021/07/20 08:36:00;;;;;;;;;;;;;;;22.49;65.89;100206.28;5047634;28;1728;-41
2021/07/20 08:38:29;;;;;;;;;;;;;;;22.46;66.15;100205.78;5044593;28;1719;-40
2021/07/20 08:41:03;;;;;;;;;;;;;;;22.43;66.47;100207.78;5047415;28;1661;-41
2021/07/20 08:43:33;;;;;;;;;;;;;;;22.45;66.36;100210.31;5048074;28;1969;-41
2021/07/20 08:46:09;;;;;;;;;;;;;;;22.47;66.92;100205.59;5048647;28;1644;-41
2021/07/20 08:48:38;;;;;;;;;;;;;;;22.49;67.46;100205.44;5047470;28;1732;-41
2021/07/20 08:51:06;;;;;;;;;;;;;;;22.47;67.10;100204.78;5047805;28;1795;-41
2021/07/20 08:53:35;;;;;;;;;;;;;;;22.52;67.13;100199.69;5046518;28;2184;-41
2021/07/20 08:56:03;;;;;;;;;;;;;;;22.52;67.70;100203.25;5051697;28;1741;-41
2021/07/20 08:58:32;;;;;;;;;;;;;;;22.46;67.09;100190.44;5049218;28;1709;-41
2021/07/20 09:01:01;;;;;;;;;;;;;;;22.42;67.00;100197.19;5051425;28;1415;-41
2021/07/20 09:03:32;;;;;;;;;;;;;;;22.26;67.28;100181.06;5051206;28;1902;-41
2021/07/20 09:06:04;;;;;;;;;;;;;;;22.29;67.50;100204.97;5047775;28;1931;-41
2021/07/20 09:08:34;;;;;;;;;;;;;;;22.31;67.49;100184.94;5048120;28;1787;-41
2021/07/20 09:11:03;;;;;;;;;;;;;;;22.35;66.90;100207.00;5051327;28;1733;-41
2021/07/20 09:13:33;;;;;;;;;;;;;;;22.35;67.17;100191.66;5049412;28;1604;-41
2021/07/20 09:16:04;;;;;;;;;;;;;;;22.39;66.67;100197.53;5053781;28;1342;-41
2021/07/20 09:18:30;;;;;;;;;;;;;;;;;;5041958;28;2765;-42
2021/07/20 09:21:00;;;;;;;;;;;;;;;22.28;66.75;100206.81;5039737;28;1892;-42
2021/07/20 09:23:30;;;;;;;;;;;;;;;22.33;66.37;100188.28;5042087;28;1906;-42
2021/07/20 09:26:01;;;;;;;;;;;;;;;22.28;66.20;100203.28;5040490;28;1940;-42
2021/07/20 09:28:31;;;;;;;;;;;;;;;22.24;66.30;100194.69;5038960;28;1792;-42
2021/07/20 09:30:59;;;;;;;;;;;;;;;22.27;66.07;100194.38;5037956;28;1364;-42
2021/07/20 09:33:34;;;;;;;;;;;;;;;22.29;65.79;100197.72;5039768;28;1834;-42
2021/07/20 09:36:01;;;;;;;;;;;;;;;22.29;65.44;100184.25;5042775;28;1905;-42
2021/07/20 09:38:43;;;;;;;;;;;;;;;22.31;65.64;100211.03;5040114;28;1960;-42
2021/07/20 09:41:16;;;;;;;;;;;;;;;22.21;65.60;100197.72;5039532;28;1745;-42
2021/07/20 09:43:49;;;;;;;;;;;;;;;22.22;65.86;100197.56;5041466;28;1969;-42
2021/07/20 09:46:19;;;;;;;;;;;;;;;22.23;65.58;100193.84;5039454;28;1541;-42
2021/07/20 09:48:48;;;;;;;;;;;;;;;22.15;65.94;100199.22;5038712;28;1829;-42
2021/07/20 09:51:25;;;;;;;;;;;;;;;22.10;65.97;100185.41;5041829;28;1783;-42
2021/07/20 09:54:06;;;;;;;;;;;;;;;22.11;66.01;100195.19;5038796;28;1588;-41
2021/07/20 09:56:38;;;;;;;;;;;;;;;22.09;66.19;100191.84;5041602;28;2311;-42
2021/07/20 09:59:11;;;;;;;;;;;;;;;22.07;65.78;100193.84;5039182;28;1858;-42
2021/07/20 10:01:39;;;;;;;;;;;;;;;22.09;65.97;100191.84;5037745;28;1906;-42
2021/07/20 10:04:12;;;;;;;;;;;;;;;22.12;65.53;100180.72;5038592;28;1521;-42
2021/07/20 10:06:41;;;;;;;;;;;;;;;22.17;65.90;100178.34;5040524;28;1822;-42
2021/07/20 10:09:14;;;;;;;;;;;;;;;22.19;66.15;100189.81;5036492;28;1931;-42
2021/07/20 10:11:44;;;;;;;;;;;;;;;22.18;66.46;100168.41;5044323;28;2555;-42
2021/07/20 10:14:21;;;;;;;;;;;;;;;22.21;66.75;100181.56;5041451;28;1666;-42
2021/07/20 10:16:53;;;;;;;;;;;;;;;22.18;66.78;100177.38;5038743;28;2029;-45
2021/07/20 10:19:22;;;;;;;;;;;;;;;22.19;66.13;100195.19;5039635;28;1681;-42
2021/07/20 10:21:51;;;;;;;;;;;;;;;22.24;65.89;100174.00;5034408;28;1910;-41
2021/07/20 10:24:22;;;;;;;;;;;;;;;22.61;64.95;100180.63;5043560;28;1922;-41
2021/07/20 10:26:54;;;;;;;;;;;;;;;23.01;64.25;100172.56;5047286;28;1821;-42
2021/07/20 10:29:25;;;;;;;;;;;;;;;23.30;63.97;100179.16;5046925;28;1796;-42
2021/07/20 10:31:57;;;;;;;;;;;;;;;23.54;63.92;100187.09;5050674;28;1717;-42
2021/07/20 10:34:25;;;;;;;;;;;;;;;23.70;63.12;100180.75;5047589;28;1573;-42
2021/07/20 10:36:53;;;;;;;;;;;;;;;23.86;63.09;100163.59;5047445;28;1152;-42
2021/07/20 10:39:22;;;;;;;;;;;;;;;23.95;62.44;100162.50;5048517;28;2201;-42
2021/07/20 10:41:55;;;;;;;;;;;;;;;24.15;62.14;100170.06;5046400;28;2072;-42
2021/07/20 10:44:23;;;;;;;;;;;;;;;24.16;62.75;100160.97;5049186;28;1802;-42
2021/07/20 10:46:52;;;;;;;;;;;;;;;24.22;61.79;100161.06;5050221;28;1790;-42
2021/07/20 10:49:23;;;;;;;;;;;;;;;24.25;62.84;100165.25;5049220;28;1798;-42
2021/07/20 10:51:51;;;;;;;;;;;;;;;24.32;62.11;100165.34;5050437;28;1114;-42
2021/07/20 10:54:25;;;;;;;;;;;;;;;24.32;62.32;100130.22;5049137;28;1701;-42
2021/07/20 10:56:54;;;;;;;;;;;;;;;24.35;62.20;100130.69;5047129;28;1753;-42
2021/07/20 10:59:29;;;;;;;;;;;;;;;24.39;63.07;100137.41;5049076;28;1904;-42
2021/07/20 11:02:08;;;;;;;;;;;;;;;24.50;63.50;100133.41;5049114;28;1906;-42
2021/07/20 11:04:43;;;;;;;;;;;;;;;24.45;64.06;100124.16;5047124;28;1864;-42
2021/07/20 11:07:10;;;;;;;;;;;;;;;24.46;63.68;100145.59;5048432;28;1629;-42
2021/07/20 11:09:41;;;;;;;;;;;;;;;24.44;64.00;100139.53;5048398;28;2039;-43
2021/07/20 11:12:08;;;;;;;;;;;;;;;24.44;63.54;100123.31;5045243;28;1168;-42
2021/07/20 11:14:37;;;;;;;;;;;;;;;24.40;63.39;100124.72;5047787;28;1811;-42
2021/07/20 11:17:05;;;;;;;;;;;;;;;24.41;63.74;100126.38;5048869;28;2073;-42
2021/07/20 11:19:32;;;;;;;;;;;;;;;24.42;64.53;100118.09;5046822;28;1842;-43
2021/07/20 11:21:59;;;;;;;;;;;;;;;24.43;64.47;100121.63;5048355;28;1910;-42
2021/07/20 11:24:26;;;;;;;;;;;;;;;24.42;64.53;100123.50;5049074;28;1184;-42
2021/07/20 11:26:56;;;;;;;;;;;;;;;24.44;64.60;100123.31;5044392;28;1748;-42
2021/07/20 11:29:23;;;;;;;;;;;;;;;24.45;64.26;100108.78;5049508;28;1717;-42
2021/07/20 11:31:52;;;;;;;;;;;;;;;24.49;64.39;100126.31;5049215;28;1630;-42
2021/07/20 11:34:21;;;;;;;;;;;;;;;24.45;64.65;100119.59;5046015;28;1829;-42
2021/07/20 11:36:48;;;;;;;;;;;;;;;24.47;64.70;100125.66;5048466;28;1083;-42
2021/07/20 11:39:16;;;;;;;;;;;;;;;24.51;64.00;100118.91;5045438;28;1819;-42
2021/07/20 11:41:46;;;;;;;;;;;;;;;24.52;64.12;100119.72;5045820;28;1596;-43
2021/07/20 11:44:23;;;;;;;;;;;;;;;24.49;64.54;100123.63;5047955;28;1902;-42
2021/07/20 11:46:52;;;;;;;;;;;;;;;24.51;64.68;100112.63;5049524;28;2019;-42
2021/07/20 11:49:24;;;;;;;;;;;;;;;24.55;64.30;100131.00;5045963;28;1808;-42
2021/07/20 11:51:52;;;;;;;;;;;;;;;24.54;64.96;100118.50;5047234;28;1107;-42
2021/07/20 11:54:24;;;;;;;;;;;;;;;24.57;65.15;100112.72;5045482;28;2270;-42
2021/07/20 11:56:56;;;;;;;;;;;;;;;24.56;64.92;100099.41;5046870;28;1969;-42
2021/07/20 11:59:37;;;;;;;;;;;;;;;24.57;64.67;100123.53;5047898;28;1689;-42
2021/07/20 12:02:28;;;;;;;;;;;;;;;24.55;64.01;100120.19;5047905;28;1993;-42
2021/07/20 12:05:13;;;;;;;;;;;;;;;24.55;65.05;100112.09;5046446;28;1867;-42
2021/07/20 12:07:43;;;;;;;;;;;;;;;24.60;65.22;100120.44;5045439;28;1623;-42
2021/07/20 12:10:16;;;;;;;;;;;;;;;24.62;65.10;100128.38;5046972;28;1816;-42
2021/07/20 12:12:49;;;;;;;;;;;;;;;24.64;64.90;100144.41;5046688;28;1824;-42
2021/07/20 12:15:17;;;;;;;;;;;;;;;24.61;64.42;100114.03;5049818;28;1274;-42
2021/07/20 12:17:44;;;;;;;;;;;;;;;24.65;65.33;100110.94;5049192;28;1882;-43
2021/07/20 12:20:11;;;;;;;;;;;;;;;24.65;65.28;100113.63;5045515;28;1818;-42
2021/07/20 12:22:39;;;;;;;;;;;;;;;24.64;65.03;100128.19;5046544;28;1898;-42
2021/07/20 12:25:08;;;;;;;;;;;;;;;24.65;64.96;100119.03;5045112;28;1954;-42
2021/07/20 12:27:35;;;;;;;;;;;;;;;24.63;65.00;100110.28;5048372;28;1890;-42
2021/07/20 12:30:02;;;;;;;;;;;;;;;24.63;64.95;100119.25;5050936;28;1313;-42
2021/07/20 12:32:30;;;;;;;;;;;;;;;24.66;65.14;100110.75;5052945;28;1788;-42
2021/07/20 12:34:58;;;;;;;;;;;;;;;24.66;64.95;100116.16;5054326;28;1083;-42
2021/07/20 12:37:25;;;;;;;;;;;;;;;24.65;64.68;100094.72;5050176;28;1848;-42
2021/07/20 12:39:56;;;;;;;;;;;;;;;24.64;65.51;100091.19;5048012;28;1744;-42
2021/07/20 12:42:24;;;;;;;;;;;;;;;24.67;64.98;100087.25;5051637;28;1902;-42
2021/07/20 12:45:01;;;;;;;;;;;;;;;24.64;64.93;100074.97;5049535;28;1818;-42
2021/07/20 12:47:27;;;;;;;;;;;;;;;24.66;65.70;100091.00;5050784;28;1788;-42
2021/07/20 12:49:53;;;;;;;;;;;;;;;24.63;65.64;100084.13;5050779;28;1808;-42
2021/07/20 12:52:22;;;;;;;;;;;;;;;24.65;65.55;100083.91;5051055;28;1664;-42
2021/07/20 12:54:48;;;;;;;;;;;;;;;24.69;65.19;100077.09;5051217;28;1856;-42
2021/07/20 12:57:16;;;;;;;;;;;;;;;24.68;65.55;100092.47;5050360;28;1758;-43
2021/07/20 12:59:44;;;;;;;;;;;;;;;24.70;65.19;100089.59;5051829;28;1083;-42